AirNav   Everest Fuels
 
 1109 users online  

18KY Marshall County Hospital Heliport
Benton, Kentucky, USA

GOING TO BENTON?


FAA INFORMATION EFFECTIVE 16 JULY 2020

Location

FAA Identifier: 18KY
Lat/Long: 36-52-03.5400N 088-22-14.3100W
36-52.059000N 088-22.238500W
36.8676500,-88.3706417
(estimated)
Elevation: 412 ft. / 126 m (estimated)
Variation: 01E (1985)
From city: 1 mile NW of BENTON, KY
Time zone: UTC -5 (UTC -6 during Standard Time)
Zip code: 42025

Heliport Operations

Heliport use: Private use. Permission required prior to landing
Activation date: 08/1988
Control tower: no
ARTCC: MEMPHIS CENTER
FSS: LOUISVILLE FLIGHT SERVICE STATION
Attendance: UNATNDD
Wind indicator: yes
Segmented circle: no
Lights: CALL 270-527-4800.

Heliport Communications

WX AWOS-3 at M25 (12 nm SW): 120.625 (270-247-2094)
WX AWOS-3 at CEY (12 nm S): 119.975 (270-489-2424)

Nearby radio navigation aids

VOR radial/distance  VOR name  Freq  Var
CNGr108/23.9CUNNINGHAM VOR/DME113.1003E

 
NDB name  Hdg/Dist  Freq  Var  ID
TRAINER003/37.141000ETIQ - .. --.-

Heliport Services

Runway Information

Helipad H1

Dimensions: 50 x 50 ft. / 15 x 15 m
Surface: concrete
Runway edge lights: PERI
Latitude: 36-52.059000N
Longitude: 088-22.238500W
Elevation: 412.0 ft.
Traffic pattern: leftleft

Heliport Ownership and Management from official FAA records

Ownership: Publicly-owned
Owner: MARSHALL COUNTY HOSPITAL
615 OLD SYMSONIA ROAD
BENTON, KY 42025
Phone (270) 527-4850
DAVID FUNQUA
Manager: DAVID PARR
615 OLD SYMSONIA ROAD
BENTON, KY 42025-0630
Phone (270) 527-4947

Additional Remarks

FOR CD CTC MEMPHIS ARTCC AT 901-368-8453.

Instrument Procedures

There are no published instrument procedures at 18KY.

Some nearby airports with instrument procedures:

M25 - Mayfield Graves County Airport (12 nm SW)
KCEY - Kyle-Oakley Field Airport (12 nm S)
KPAH - Barkley Regional Airport (22 nm NW)
2M0 - Princeton-Caldwell County Airport (29 nm NE)
5M9 - Marion-Crittenden County Airport (31 nm NE)
 
Loc | Ops | Rwys | IFR | FBO | Links
Com | Nav | Svcs | Stats | Notes
Area around 18KY (Marshall County Hospital Heliport)
 
Road maps at: MapQuest Bing Google
 
Aerial photo
No photo
 
Sectional chart

 
Airport distance calculator
Flying to Marshall County Hospital Heliport? Find the distance to fly.

From to 18KY

Sunrise and sunset
Times for 09-Aug-2020
 Local
(UTC-5)
 Zulu
(UTC)
Morning civil twilight05:3910:39
Sunrise06:0711:07
Sunset19:5000:50
Evening civil twilight20:1801:18

Current date and time
Zulu (UTC)  09-Aug-2020 15:07:02
Local (UTC-5)  09-Aug-2020 10:07:02
 
METAR
KM25 
12nm SW 
091455Z AUTO 24005KT 10SM SCT090 BKN110 24/22 A3016 RMK AO2 PWINO
KCEY 
12nm S 
091455Z AUTO 22005KT 10SM FEW080 FEW120 26/22 A3015 RMK AO1
KPAH 
22nm NW 
091453Z 21006KT 10SM FEW110 25/22 A3008 RMK AO2 RAE45 SLP179 P0006 60007 T02500222 58010
TAF
KPAH 
22nm NW 
091318Z 0913/1012 VRB05KT P6SM -TSRA BKN090CB TEMPO 0913/0915 4SM TSRA BR BKN050CB FM091500 19006KT P6SM -SHRA SCT045 BKN080 FM092000 19006KT P6SM FEW060 SCT150
NOTAMs
Click for the latest NOTAMs
NOTAMs are issued by the DoD/FAA and will open in a separate window not controlled by AirNav.

 

 
 

Would you like to see your business listed on this page?

 If your business provides an interesting product or service to pilots, flight crews, aircraft, or users of the Marshall County Hospital Heliport, you should consider listing it here.  To start the listing process, click on the button below
 
Add a business
 

Other Pages about Marshall County Hospital Heliport

Update a link
 
Copyright © AirNav, LLC. All rights reserved. Privacy Policy  Contact